Time;durP1;ratioP1;P1;durP2;ratioP2;P2;SDS_P1;SDS_P2;PMS_P1;PMS_P2;Temp;Humidity;BMP_temperature;BMP_pressure;BME280_temperature;BME280_humidity;BME280_pressure;Samples;Min_cycle;Max_cycle;Signal;HPM_P1;HPM_P2
2022/04/26 03:36:35;;;;;;;609.92;343.38;;;;;;;10.24;84.15;95803.69;5062662;28;20063;-73
2022/04/26 03:39:02;;;;;;;605.55;347.90;;;;;;;10.20;84.03;95795.34;5062097;28;20053;-75
2022/04/26 03:41:28;;;;;;;620.25;357.70;;;;;;;10.17;84.04;95792.47;5062015;28;20055;-73
2022/04/26 03:43:55;;;;;;;611.90;365.70;;;;;;;10.14;84.12;95788.50;5059682;28;20045;-73
2022/04/26 03:46:23;;;;;;;613.80;353.02;;;;;;;10.15;84.35;95792.81;5061530;28;20048;-73
2022/04/26 03:48:49;;;;;;;615.85;376.90;;;;;;;10.17;84.33;95795.19;5062683;28;20040;-73
2022/04/26 03:51:16;;;;;;;614.38;348.83;;;;;;;10.22;84.51;95796.94;5061190;28;20647;-73
2022/04/26 03:53:42;;;;;;;590.53;307.27;;;;;;;10.22;84.60;95802.38;5062604;28;20424;-73
2022/04/26 03:56:09;;;;;;;598.47;299.00;;;;;;;10.21;84.35;95801.59;5061021;28;20065;-73
2022/04/26 03:58:35;;;;;;;614.97;369.67;;;;;;;10.20;84.45;95806.22;5062396;28;20051;-73
2022/04/26 04:01:02;;;;;;;593.60;311.15;;;;;;;10.19;84.67;95810.09;5061205;28;20067;-74
2022/04/26 04:03:30;;;;;;;612.58;325.83;;;;;;;10.16;84.80;95808.00;5062245;28;20055;-73
2022/04/26 04:05:56;;;;;;;579.97;279.30;;;;;;;10.12;84.90;95807.06;5061632;28;20041;-73
2022/04/26 04:08:23;;;;;;;609.72;309.40;;;;;;;10.11;85.08;95801.97;5054415;28;20055;-73
2022/04/26 04:10:49;;;;;;;610.72;354.45;;;;;;;10.09;85.34;95810.47;5048660;28;20048;-73
2022/04/26 04:13:18;;;;;;;619.55;353.05;;;;;;;10.10;85.40;95811.25;5046959;28;20053;-73
2022/04/26 04:15:46;;;;;;;601.75;302.08;;;;;;;10.06;85.72;95816.53;5048781;28;20049;-75
2022/04/26 04:20:54;;;;;;;603.22;295.98;;;;;;;10.04;85.80;95807.91;5048934;28;20041;-73
2022/04/26 04:23:21;;;;;;;623.20;383.35;;;;;;;10.05;85.96;95808.72;5047632;28;20056;-73
2022/04/26 04:25:48;;;;;;;620.58;378.13;;;;;;;10.07;85.69;95809.97;5047670;28;20741;-73
2022/04/26 04:28:15;;;;;;;609.67;355.38;;;;;;;10.08;85.81;95814.31;5047355;28;20452;-73
2022/04/26 04:30:41;;;;;;;618.03;369.90;;;;;;;10.09;85.78;95810.47;5047178;28;20044;-74
2022/04/26 04:33:08;;;;;;;598.35;327.65;;;;;;;10.11;85.61;95812.84;5047245;28;20102;-73
2022/04/26 04:35:35;;;;;;;611.67;351.17;;;;;;;10.11;85.49;95821.78;5046945;28;20056;-73
2022/04/26 04:38:03;;;;;;;604.47;322.80;;;;;;;10.13;85.58;95829.66;5047295;28;20462;-75
2022/04/26 04:40:30;;;;;;;603.13;325.90;;;;;;;10.11;85.48;95823.72;5046510;28;20045;-73
2022/04/26 04:42:56;;;;;;;625.45;376.33;;;;;;;10.06;85.81;95827.41;5045712;28;20534;-73
2022/04/26 04:45:23;;;;;;;632.65;355.70;;;;;;;10.04;85.71;95823.44;5045671;28;20077;-74
2022/04/26 04:47:50;;;;;;;595.95;281.80;;;;;;;9.97;85.29;95828.56;5046891;28;20052;-73
2022/04/26 04:50:16;;;;;;;587.13;292.80;;;;;;;9.97;85.77;95829.41;5046976;28;20053;-73
2022/04/26 04:52:43;;;;;;;599.40;295.15;;;;;;;9.99;85.30;95832.59;5047455;28;20068;-73
2022/04/26 04:55:11;;;;;;;598.45;323.58;;;;;;;10.01;85.39;95841.19;5047329;28;20060;-73
2022/04/26 04:57:37;;;;;;;628.25;389.27;;;;;;;10.02;85.44;95842.78;5046991;28;20064;-74
2022/04/26 05:00:05;;;;;;;603.60;341.40;;;;;;;10.04;85.55;95851.44;5047975;28;20052;-74
2022/04/26 05:02:32;;;;;;;610.15;340.98;;;;;;;10.05;85.78;95850.31;5046802;28;20044;-73
2022/04/26 05:04:58;;;;;;;596.53;346.80;;;;;;;10.08;85.89;95851.59;5047261;28;20060;-73
2022/04/26 05:07:25;;;;;;;597.65;284.33;;;;;;;10.08;85.66;95857.84;5047245;28;20067;-73
2022/04/26 05:09:52;;;;;;;579.63;183.82;;;;;;;10.11;85.55;95861.81;5047639;28;20397;-73
2022/04/26 05:12:20;;;;;;;608.67;293.88;;;;;;;10.08;85.80;95857.84;5046448;28;20049;-74
2022/04/26 05:14:47;;;;;;;622.80;365.67;;;;;;;10.09;85.65;95853.97;5047232;28;20087;-74
2022/04/26 05:17:13;;;;;;;584.88;246.88;;;;;;;10.11;85.30;95859.88;5047001;28;20103;-73
2022/04/26 05:19:40;;;;;;;604.55;320.33;;;;;;;10.11;85.08;95867.25;5045614;28;20037;-74
2022/04/26 05:22:08;;;;;;;575.83;217.88;;;;;;;10.09;85.38;95866.78;5047068;28;20503;-73
2022/04/26 05:27:23;;;;;;;574.80;221.40;;;;;;;10.07;84.93;95866.31;5043094;28;20063;-74
2022/04/26 05:29:50;;;;;;;602.42;314.60;;;;;;;10.05;85.16;95858.47;5046944;28;20045;-74
2022/04/26 05:32:20;;;;;;;605.28;352.92;;;;;;;10.06;85.17;95860.06;5046443;28;20052;-74
2022/04/26 05:34:47;;;;;;;602.28;339.15;;;;;;;10.10;85.23;95869.19;5047071;28;20662;-74
2022/04/26 05:37:13;;;;;;;610.15;354.10;;;;;;;10.11;85.17;95868.03;5046261;28;20049;-73
2022/04/26 05:39:40;;;;;;;619.35;355.48;;;;;;;10.11;85.16;95857.16;5047268;28;20455;-74
2022/04/26 05:42:06;;;;;;;627.67;386.65;;;;;;;10.09;85.21;95859.44;5045821;28;20616;-74
2022/04/26 05:44:38;;;;;;;597.35;318.33;;;;;;;10.10;85.64;95863.72;5047369;28;20495;-74
2022/04/26 05:47:06;;;;;;;602.50;332.52;;;;;;;10.13;85.60;95865.81;5045863;28;20450;-74
2022/04/26 05:49:32;;;;;;;617.78;327.98;;;;;;;10.12;86.17;95861.47;5046444;28;20052;-74
2022/04/26 05:51:59;;;;;;;583.03;226.63;;;;;;;10.10;86.06;95866.47;5045114;28;20067;-75
2022/04/26 05:54:25;;;;;;;565.15;170.73;;;;;;;10.10;86.67;95858.28;5045612;28;20065;-74
2022/04/26 05:56:52;;;;;;;568.40;200.23;;;;;;;10.11;86.55;95857.16;5046123;28;20056;-74
2022/04/26 05:59:19;;;;;;;590.75;231.82;;;;;;;10.16;86.93;95858.91;5045867;28;20443;-74
2022/04/26 06:01:46;;;;;;;577.30;176.70;;;;;;;10.18;87.46;95852.03;5046517;28;20529;-74
2022/04/26 06:04:13;;;;;;;623.10;356.88;;;;;;;10.15;87.55;95858.13;5045272;28;20044;-74
2022/04/26 06:06:40;;;;;;;602.33;336.63;;;;;;;10.19;87.71;95858.25;5046863;28;20048;-74
2022/04/26 06:09:06;;;;;;;612.60;358.88;;;;;;;10.24;87.89;95843.72;5045478;28;20057;-74
2022/04/26 06:11:33;;;;;;;610.65;358.30;;;;;;;10.15;88.01;95852.66;5046727;28;20048;-73
2022/04/26 06:14:01;;;;;;;609.45;357.15;;;;;;;10.11;88.59;95849.00;5045080;28;20053;-73
2022/04/26 06:16:28;;;;;;;613.60;311.30;;;;;;;10.11;88.63;95856.38;5046711;28;20072;-73
2022/04/26 06:18:56;;;;;;;611.45;358.63;;;;;;;10.17;88.58;95868.66;5046002;28;20052;-73
2022/04/26 06:21:22;;;;;;;602.60;342.63;;;;;;;10.16;87.93;95867.88;5046231;28;20049;-72
2022/04/26 06:23:48;;;;;;;613.85;359.38;;;;;;;10.16;87.74;95859.69;5046675;28;20048;-74
2022/04/26 06:26:15;;;;;;;612.65;339.23;;;;;;;10.17;88.24;95860.50;5045153;28;20049;-73
2022/04/26 06:28:42;;;;;;;611.97;361.38;;;;;;;10.16;88.19;95873.31;5046265;28;20056;-73
2022/04/26 06:31:08;;;;;;;621.45;357.58;;;;;;;10.19;88.11;95867.22;5044604;28;20053;-73
2022/04/26 06:33:35;;;;;;;582.95;206.70;;;;;;;10.23;88.39;95861.09;5046060;28;20056;-74
2022/04/26 06:36:03;;;;;;;617.88;318.73;;;;;;;10.27;88.26;95867.53;5045537;28;20484;-74
2022/04/26 06:38:30;;;;;;;623.58;366.85;;;;;;;10.30;88.16;95869.59;5045809;28;20048;-73
2022/04/26 06:40:56;;;;;;;627.40;337.30;;;;;;;10.32;88.31;95867.34;5045378;28;20056;-73
2022/04/26 06:43:23;;;;;;;605.13;216.48;;;;;;;10.33;88.59;95871.66;5045157;28;20049;-74
2022/04/26 06:45:49;;;;;;;626.08;344.23;;;;;;;10.36;88.34;95879.19;5043733;28;20056;-73
2022/04/26 06:48:17;;;;;;;634.50;373.15;;;;;;;10.38;88.15;95882.34;5044398;28;20118;-73
2022/04/26 06:50:46;;;;;;;583.97;187.13;;;;;;;10.31;88.05;95871.19;5045387;28;20132;-72
2022/04/26 06:53:13;;;;;;;593.58;228.02;;;;;;;10.32;87.99;95873.59;5044774;28;20052;-73
2022/04/26 06:55:40;;;;;;;603.28;276.55;;;;;;;10.38;88.32;95882.34;5045688;28;20616;-72
2022/04/26 06:58:07;;;;;;;613.25;292.00;;;;;;;10.38;88.01;95882.34;5044769;28;20037;-74
2022/04/26 07:00:34;;;;;;;626.35;395.13;;;;;;;10.42;88.54;95875.13;5045710;28;20125;-74
2022/04/26 07:03:00;;;;;;;611.42;362.88;;;;;;;10.49;88.67;95875.41;5044710;28;20252;-74
2022/04/26 07:05:27;;;;;;;615.15;356.85;;;;;;;10.54;88.80;95868.97;5045322;28;20080;-73
2022/04/26 07:07:54;;;;;;;620.28;386.33;;;;;;;10.59;88.66;95869.59;5045363;28;20049;-73
2022/04/26 07:10:22;;;;;;;628.08;381.67;;;;;;;10.64;88.50;95869.41;5044616;28;20049;-72
2022/04/26 07:12:48;;;;;;;633.65;397.52;;;;;;;10.66;88.47;95864.44;5045626;28;20124;-73
2022/04/26 07:15:15;;;;;;;626.50;319.30;;;;;;;10.76;88.43;95865.19;5044590;28;20053;-73
2022/04/26 07:17:43;;;;;;;628.50;385.85;;;;;;;10.79;88.29;95876.19;5045733;28;20052;-72
2022/04/26 07:20:10;;;;;;;635.17;388.40;;;;;;;10.91;88.35;95872.75;5044205;28;20107;-73
2022/04/26 07:22:38;;;;;;;637.67;413.02;;;;;;;11.02;87.93;95879.41;5044806;28;20041;-72
2022/04/26 07:25:05;;;;;;;589.92;266.08;;;;;;;11.01;87.92;95872.34;5044453;28;20073;-74
2022/04/26 07:27:33;;;;;;;588.42;269.55;;;;;;;11.11;87.90;95877.41;5045285;28;20049;-73
2022/04/26 07:30:00;;;;;;;614.70;389.25;;;;;;;11.14;86.47;95871.31;5044869;28;20064;-73
2022/04/26 07:35:09;;;;;;;600.58;269.55;;;;;;;11.32;85.73;95868.41;5045006;28;20087;-73
2022/04/26 07:37:36;;;;;;;621.25;367.40;;;;;;;11.48;85.82;95866.66;5044798;28;20127;-73
2022/04/26 07:40:03;;;;;;;599.50;307.90;;;;;;;11.59;84.27;95870.59;5045083;28;20187;-74
2022/04/26 07:42:29;;;;;;;580.15;254.15;;;;;;;11.82;83.75;95868.28;5043337;28;20434;-73
2022/04/26 07:44:57;;;;;;;612.92;369.70;;;;;;;12.22;81.87;95873.94;5049091;28;20041;-74
2022/04/26 07:47:26;;;;;;;547.90;192.07;;;;;;;12.52;80.81;95874.50;5047834;28;20049;-73
2022/04/26 07:49:53;;;;;;;635.92;444.48;;;;;;;12.60;79.02;95881.00;5048716;28;20055;-73
2022/04/26 07:52:20;;;;;;;545.83;194.85;;;;;;;12.66;78.73;95881.56;5048211;28;20128;-73
2022/04/26 07:54:47;;;;;;;540.95;177.85;;;;;;;12.54;77.96;95887.81;5048669;28;20392;-73
2022/04/26 07:57:14;;;;;;;128.43;39.42;;;;;;;12.25;76.41;95881.41;5048279;28;20052;-74
2022/04/26 07:59:41;;;;;;;85.57;36.60;;;;;;;12.34;76.57;95891.44;5048426;28;20055;-73
2022/04/26 08:02:10;;;;;;;75.00;30.80;;;;;;;12.38;74.43;95887.69;5048162;28;20107;-73
2022/04/26 08:04:36;;;;;;;79.05;28.70;;;;;;;12.42;74.24;95890.53;5047788;28;20049;-73
2022/04/26 08:07:03;;;;;;;216.75;80.00;;;;;;;12.35;73.63;95884.84;5048395;28;20053;-73
2022/04/26 08:09:32;;;;;;;171.48;65.07;;;;;;;12.30;72.05;95885.06;5047991;28;20565;-73
2022/04/26 08:11:58;;;;;;;534.85;253.15;;;;;;;12.28;73.02;95886.22;5048439;28;20044;-74
2022/04/26 08:14:24;;;;;;;550.65;282.48;;;;;;;12.48;73.68;95884.53;5048260;28;20056;-73
2022/04/26 08:16:51;;;;;;;186.70;82.28;;;;;;;12.77;73.94;95883.47;5047852;28;20044;-73
2022/04/26 08:19:19;;;;;;;385.70;188.15;;;;;;;13.01;73.43;95879.91;5047862;28;20048;-72
2022/04/26 08:21:45;;;;;;;42.97;11.88;;;;;;;13.15;72.39;95884.19;5047941;28;20060;-72
2022/04/26 08:29:40;;;;;;;23.63;12.40;;;;;;;13.17;69.88;95888.19;5048293;28;20202;-73
2022/04/26 08:32:07;;;;;;;28.60;11.43;;;;;;;13.40;69.51;95895.88;5047161;28;20439;-74
2022/04/26 08:34:35;;;;;;;229.35;124.25;;;;;;;13.67;69.41;95889.63;5047890;28;20052;-73
2022/04/26 08:37:01;;;;;;;75.13;26.90;;;;;;;13.49;66.50;95893.81;5047807;28;20072;-73
2022/04/26 08:39:28;;;;;;;120.32;72.65;;;;;;;13.17;65.88;95893.66;5047531;28;20041;-73
2022/04/26 08:41:58;;;;;;;597.10;347.80;;;;;;;13.07;66.78;95894.94;5048026;28;20056;-73
2022/04/26 08:44:26;;;;;;;376.48;235.88;;;;;;;13.13;67.73;95891.97;5046502;28;20133;-73
2022/04/26 08:52:23;;;;;;;132.60;51.03;;;;;;;13.25;66.70;95890.00;5047265;28;20098;-72
2022/04/26 08:54:50;;;;;;;85.90;38.38;;;;;;;13.21;65.75;95894.59;5047384;28;20049;-72
2022/04/26 08:57:17;;;;;;;39.35;9.55;;;;;;;13.16;66.14;95891.28;5046749;28;20419;-73
2022/04/26 08:59:48;;;;;;;31.00;11.50;;;;;;;12.98;66.09;95896.19;5047791;28;20052;-72
2022/04/26 09:02:16;;;;;;;24.40;8.55;;;;;;;13.14;67.42;95894.34;5046428;28;20052;-74
2022/04/26 09:04:44;;;;;;;42.22;9.48;;;;;;;13.03;66.28;95898.69;5047575;28;20507;-75
2022/04/26 09:07:12;;;;;;;177.27;71.57;;;;;;;13.01;67.28;95895.50;5046533;28;20056;-74
2022/04/26 09:09:39;;;;;;;43.20;13.13;;;;;;;13.00;66.27;95896.66;5047532;28;20859;-73
2022/04/26 09:12:10;;;;;;;137.43;57.40;;;;;;;12.93;66.78;95899.16;5046659;28;20297;-75
2022/04/26 09:14:39;;;;;;;62.95;18.85;;;;;;;12.58;67.67;95910.59;5045490;28;20120;-72
2022/04/26 09:17:07;;;;;;;36.13;9.35;;;;;;;12.69;68.15;95900.78;5046786;28;20060;-72
2022/04/26 09:19:47;;;;;;;589.25;306.70;;;;;;;12.77;69.07;95904.53;5046551;28;20045;-74
2022/04/26 09:22:18;;;;;;;540.60;294.52;;;;;;;12.75;70.49;95904.88;5047051;28;20156;-73
2022/04/26 09:24:55;;;;;;;46.10;17.30;;;;;;;12.77;72.20;95899.84;5046622;28;20714;-73
2022/04/26 09:27:22;;;;;;;120.50;34.50;;;;;;;12.74;72.64;95903.28;5046426;28;20053;-73
2022/04/26 09:29:48;;;;;;;578.22;296.13;;;;;;;12.61;72.54;95901.69;5046830;28;20095;-73
2022/04/26 09:32:15;;;;;;;353.20;154.40;;;;;;;12.50;73.29;95903.28;5046468;28;20102;-73
2022/04/26 09:34:41;;;;;;;162.68;69.10;;;;;;;11.92;76.07;95899.81;5047294;28;20053;-73
2022/04/26 09:37:10;;;;;;;62.45;15.50;;;;;;;11.72;78.82;95907.66;5046372;28;20049;-74
2022/04/26 09:39:39;;;;;;;177.48;88.32;;;;;;;11.74;82.41;95908.13;5046823;28;20040;-74
2022/04/26 09:42:06;;;;;;;53.30;13.25;;;;;;;11.63;84.63;95909.66;5044982;28;20068;-74
2022/04/26 09:44:34;;;;;;;596.10;358.13;;;;;;;11.49;83.81;95909.19;5046379;28;20128;-73
2022/04/26 09:47:00;;;;;;;542.85;291.38;;;;;;;11.51;85.19;95917.81;5046162;28;20049;-73
2022/04/26 09:49:35;;;;;;;225.80;98.75;;;;;;;11.42;84.35;95917.06;5046714;28;20049;-73
2022/04/26 09:52:01;;;;;;;125.32;74.30;;;;;;;11.39;85.46;95909.59;5046274;28;20053;-73
2022/04/26 09:54:29;;;;;;;547.13;193.27;;;;;;;11.48;86.04;95921.19;5046438;28;20049;-74
2022/04/26 09:56:56;;;;;;;472.80;119.78;;;;;;;11.45;86.52;95921.88;5046146;28;20049;-72
2022/04/26 09:59:27;;;;;;;47.00;26.77;;;;;;;11.48;85.60;95923.91;5046087;28;20140;-74
2022/04/26 10:01:56;;;;;;;50.60;28.38;;;;;;;11.42;84.98;95914.34;5046163;28;20144;-73
2022/04/26 10:04:24;;;;;;;322.45;86.97;;;;;;;11.41;85.90;95912.75;5046183;28;20045;-73
2022/04/26 10:06:53;;;;;;;44.97;22.90;;;;;;;11.32;87.52;95910.09;5046424;28;20040;-73
2022/04/26 10:09:19;;;;;;;42.08;13.15;;;;;;;11.37;87.70;95909.91;5045082;28;20048;-72
2022/04/26 10:11:47;;;;;;;337.20;86.15;;;;;;;11.39;88.18;95909.59;5046709;28;20053;-73
2022/04/26 10:14:14;;;;;;;500.23;132.70;;;;;;;11.37;86.15;95909.09;5045155;28;20057;-73
2022/04/26 10:16:41;;;;;;;348.27;83.15;;;;;;;11.30;84.53;95915.09;5045925;28;20082;-74
2022/04/26 10:19:09;;;;;;;421.92;97.95;;;;;;;11.22;84.34;95914.06;5045207;28;20044;-73
2022/04/26 10:21:46;;;;;;;436.30;103.70;;;;;;;11.12;85.09;95917.16;5045447;28;20823;-73
2022/04/26 10:24:14;;;;;;;61.05;32.88;;;;;;;11.16;85.42;95909.09;5045811;28;20110;-73
2022/04/26 10:26:41;;;;;;;63.80;18.67;;;;;;;11.15;86.44;95919.22;5045691;28;20045;-75
2022/04/26 10:29:23;;;;;;;49.28;16.50;;;;;;;11.06;85.05;95913.03;5045785;28;20114;-73
2022/04/26 10:31:57;;;;;;;57.83;21.70;;;;;;;11.15;84.75;95911.03;5045173;28;20517;-73
2022/04/26 10:34:27;;;;;;;65.63;31.13;;;;;;;11.16;84.62;95912.63;5045597;28;20044;-72
2022/04/26 10:36:54;;;;;;;50.55;23.35;;;;;;;11.19;85.09;95922.09;5046018;28;20049;-74
2022/04/26 10:39:31;;;;;;;173.75;76.72;;;;;;;11.13;84.06;95926.94;5045535;28;20132;-72
2022/04/26 10:41:58;;;;;;;131.02;46.53;;;;;;;11.11;84.34;95931.09;5046066;28;20080;-73
2022/04/26 10:44:42;;;;;;;187.27;64.53;;;;;;;11.05;85.08;95927.78;5045031;28;20052;-72
2022/04/26 10:47:23;;;;;;;57.28;15.45;;;;;;;11.09;84.98;95936.09;5045802;28;20589;-72
2022/04/26 10:49:51;;;;;;;212.95;93.03;;;;;;;10.82;83.96;95929.22;5044517;28;20056;-73
2022/04/26 10:52:34;;;;;;;66.55;20.25;;;;;;;10.74;86.48;95928.13;5044719;28;20037;-74
2022/04/26 10:55:03;;;;;;;333.33;218.15;;;;;;;10.79;86.43;95929.88;5045445;28;20075;-73
2022/04/26 10:57:31;;;;;;;388.00;204.02;;;;;;;10.77;86.27;95927.50;5045000;28;20115;-73
2022/04/26 11:00:00;;;;;;;558.13;252.45;;;;;;;10.66;86.38;95929.78;5045599;28;20041;-76
2022/04/26 11:02:29;;;;;;;440.40;259.17;;;;;;;10.70;87.00;95932.63;5044357;28;20040;-73
2022/04/26 11:04:57;;;;;;;449.38;243.82;;;;;;;10.82;87.75;95929.22;5046105;28;20045;-73
2022/04/26 11:07:26;;;;;;;401.40;134.95;;;;;;;10.86;88.30;95936.41;5044582;28;20056;-72
2022/04/26 11:09:54;;;;;;;400.30;114.38;;;;;;;10.96;88.75;95935.22;5045349;28;20052;-73
2022/04/26 11:12:22;;;;;;;389.45;114.22;;;;;;;10.89;87.88;95934.94;5044679;28;20049;-73
2022/04/26 11:14:50;;;;;;;505.90;141.05;;;;;;;10.81;87.06;95933.88;5045709;28;20130;-73
2022/04/26 11:17:19;;;;;;;362.48;94.05;;;;;;;10.79;87.22;95932.59;5044869;28;20049;-73
2022/04/26 11:19:50;;;;;;;371.75;95.20;;;;;;;10.82;87.56;95951.00;5048761;28;20048;-73
2022/04/26 11:22:18;;;;;;;495.52;133.23;;;;;;;10.82;87.45;95945.56;5049238;28;20048;-72
2022/04/26 11:30:25;;;;;;;398.50;113.78;;;;;;;10.57;88.62;95939.13;5048614;28;20067;-73
2022/04/26 11:32:57;;;;;;;588.17;319.27;;;;;;;10.35;88.42;95937.47;5048802;28;20075;-73
2022/04/26 11:35:24;;;;;;;548.90;169.03;;;;;;;10.32;89.39;95949.00;5049070;28;20048;-73
2022/04/26 11:37:53;;;;;;;569.80;215.85;;;;;;;10.37;90.15;95948.81;5048780;28;20102;-72
2022/04/26 11:40:25;;;;;;;547.50;156.32;;;;;;;10.45;90.54;95958.88;5048779;28;20053;-73
2022/04/26 11:42:52;;;;;;;171.05;45.03;;;;;;;10.52;91.01;95959.16;5048553;28;20041;-73
2022/04/26 11:45:19;;;;;;;62.83;17.45;;;;;;;10.61;91.37;95961.84;5048896;28;20485;-72
2022/04/26 11:47:48;;;;;;;39.30;13.90;;;;;;;10.68;92.18;95967.56;5048841;28;20442;-73
2022/04/26 11:50:19;;;;;;;73.20;22.45;;;;;;;10.41;89.87;95961.44;5048455;28;20119;-73
2022/04/26 11:52:46;;;;;;;75.45;31.48;;;;;;;10.31;90.55;95969.16;5048825;28;20047;-73
2022/04/26 11:55:20;;;;;;;47.03;29.75;;;;;;;10.40;91.14;95970.75;5048313;28;20549;-73
2022/04/26 11:57:47;;;;;;;54.30;18.60;;;;;;;10.37;91.75;95979.53;5048793;28;20084;-72
2022/04/26 12:00:15;;;;;;;71.57;23.20;;;;;;;10.09;90.85;95984.56;5047761;28;20515;-72
2022/04/26 12:02:42;;;;;;;48.85;17.55;;;;;;;10.15;91.63;95991.44;5049239;28;20156;-73
2022/04/26 12:05:09;;;;;;;58.22;21.40;;;;;;;10.16;91.73;96020.22;5046986;28;20110;-73
2022/04/26 12:07:37;;;;;;;64.25;25.10;;;;;;;9.61;85.89;96010.06;5047398;28;20045;-73
2022/04/26 12:10:05;;;;;;;329.50;138.05;;;;;;;9.10;87.87;96019.75;5045622;28;20060;-74
2022/04/26 12:12:31;;;;;;;354.05;89.18;;;;;;;8.76;89.76;96031.28;5048051;28;20083;-73
2022/04/26 12:14:58;;;;;;;310.58;75.53;;;;;;;8.42;91.75;96029.25;5028904;28;20057;-73
2022/04/26 12:17:29;;;;;;;415.95;99.25;;;;;;;8.26;93.90;96039.66;5027530;28;20640;-73
2022/04/26 12:19:56;;;;;;;52.15;31.30;;;;;;;8.21;95.76;96039.00;5028725;28;20053;-73
2022/04/26 12:22:25;;;;;;;46.10;28.42;;;;;;;8.19;96.01;96042.00;5027058;28;20471;-73
2022/04/26 12:24:53;;;;;;;37.28;18.95;;;;;;;8.11;96.69;96046.28;5028697;28;20041;-73
2022/04/26 12:27:22;;;;;;;51.30;30.15;;;;;;;8.15;97.57;96051.09;5027170;28;20045;-73
2022/04/26 12:29:51;;;;;;;56.13;31.55;;;;;;;8.19;98.11;96057.47;5028201;28;20045;-74
2022/04/26 12:32:19;;;;;;;49.38;26.65;;;;;;;8.32;98.61;96054.69;5027706;28;20052;-73
2022/04/26 12:34:50;;;;;;;49.45;23.88;;;;;;;8.38;99.13;96052.69;5028163;28;20069;-73
2022/04/26 12:37:20;;;;;;;63.72;28.17;;;;;;;8.43;99.37;96055.25;5027325;28;20052;-73
2022/04/26 12:39:49;;;;;;;64.53;30.23;;;;;;;8.34;98.03;96063.31;5027521;28;20500;-73
2022/04/26 12:42:18;;;;;;;64.68;39.30;;;;;;;8.36;98.17;96061.16;5027537;28;20052;-75
2022/04/26 12:44:52;;;;;;;42.25;28.63;;;;;;;8.33;96.92;96067.16;5046056;28;20049;-74
2022/04/26 12:52:53;;;;;;;57.88;29.30;;;;;;;8.24;95.78;96057.34;5047289;28;20043;-73
2022/04/26 12:55:28;;;;;;;42.75;22.30;;;;;;;8.29;95.86;96076.22;5047254;28;20079;-73
2022/04/26 12:57:58;;;;;;;63.38;30.10;;;;;;;8.30;96.47;96072.38;5046475;28;20049;-74
2022/04/26 13:00:25;;;;;;;70.05;30.85;;;;;;;8.23;96.49;96072.81;5046888;28;20060;-73
2022/04/26 13:02:54;;;;;;;66.38;26.27;;;;;;;8.17;96.54;96067.84;5046559;28;20045;-74
2022/04/26 13:05:21;;;;;;;54.95;26.67;;;;;;;8.23;96.17;96072.81;5046315;28;20049;-73
2022/04/26 13:07:48;;;;;;;50.92;19.40;;;;;;;8.11;95.52;96081.53;5047406;28;20128;-73
2022/04/26 13:10:15;;;;;;;56.38;31.60;;;;;;;8.15;95.91;96086.34;5046564;28;20079;-73
2022/04/26 13:12:42;;;;;;;50.05;30.70;;;;;;;8.07;95.40;96091.38;5046670;28;20052;-73
2022/04/26 13:15:11;;;;;;;59.97;37.30;;;;;;;7.89;95.41;96097.81;5046428;28;20850;-72
2022/04/26 13:17:38;;;;;;;42.72;20.95;;;;;;;7.78;96.42;96099.16;5047656;28;20049;-73
2022/04/26 13:20:05;;;;;;;369.92;179.32;;;;;;;7.91;96.55;96102.91;5045686;28;20064;-74
2022/04/26 13:22:33;;;;;;;367.02;123.93;;;;;;;7.87;96.69;96107.31;5047298;28;20522;-73
2022/04/26 13:25:00;;;;;;;429.52;99.47;;;;;;;7.60;96.04;96103.59;5046257;28;20550;-74
2022/04/26 13:27:26;;;;;;;331.17;79.93;;;;;;;7.74;97.11;96109.00;5046407;28;20052;-73
2022/04/26 13:29:53;;;;;;;48.15;28.55;;;;;;;7.85;97.01;96105.72;5046275;28;20110;-72
2022/04/26 13:32:21;;;;;;;55.70;23.10;;;;;;;7.70;96.49;96108.00;5044770;28;20121;-76
2022/04/26 13:34:48;;;;;;;51.63;30.25;;;;;;;7.66;96.38;96101.56;5046360;28;20407;-75
2022/04/26 13:37:17;;;;;;;67.18;31.52;;;;;;;7.63;96.85;96104.91;5045753;28;20103;-74
2022/04/26 13:39:45;;;;;;;81.35;32.58;;;;;;;7.68;97.54;96112.94;5045664;28;20507;-74
2022/04/26 13:42:12;;;;;;;53.00;32.80;;;;;;;7.73;97.33;96115.53;5043927;28;20048;-75
2022/04/26 13:44:40;;;;;;;43.88;28.52;;;;;;;7.68;96.57;96121.84;5046717;28;20075;-74
2022/04/26 13:47:08;;;;;;;49.92;34.15;;;;;;;7.68;96.52;96115.63;5044648;28;20640;-73
2022/04/26 13:49:36;;;;;;;49.17;30.67;;;;;;;7.74;96.38;96114.41;5046836;28;20388;-76
2022/04/26 13:52:04;;;;;;;50.78;17.85;;;;;;;7.58;94.70;96116.66;5045145;28;20049;-73
2022/04/26 13:54:30;;;;;;;42.88;15.27;;;;;;;7.37;93.47;96105.44;5046095;28;20057;-74
2022/04/26 13:56:57;;;;;;;71.28;21.90;;;;;;;7.55;94.49;96106.41;5045685;28;20485;-73
2022/04/26 13:59:25;;;;;;;63.67;19.52;;;;;;;7.61;94.16;96102.47;5045557;28;20579;-73
2022/04/26 14:01:52;;;;;;;48.55;15.43;;;;;;;7.82;94.61;96094.69;5046271;28;20049;-74
2022/04/26 14:04:18;;;;;;;65.70;22.13;;;;;;;7.78;92.33;96088.31;5045462;28;20072;-73
2022/04/26 14:06:46;;;;;;;53.38;16.65;;;;;;;7.77;92.50;96092.91;5046030;28;20403;-75
2022/04/26 14:09:13;;;;;;;60.33;19.85;;;;;;;7.62;92.04;96095.16;5044654;28;20053;-74
2022/04/26 14:11:41;;;;;;;57.85;22.60;;;;;;;7.53;92.82;96119.47;5046096;28;20095;-75
2022/04/26 14:22:45;;;;;;;51.80;18.38;;;;;;;7.60;97.35;96141.53;5044803;28;20102;-73
2022/04/26 14:25:13;;;;;;;71.60;22.23;;;;;;;7.63;96.32;96145.56;5045243;28;20934;-73
2022/04/26 14:27:42;;;;;;;46.45;13.65;;;;;;;7.68;94.70;96142.72;5044575;28;20124;-73
2022/04/26 14:30:10;;;;;;;73.80;22.17;;;;;;;7.77;93.48;96140.88;5044865;28;20415;-72
2022/04/26 14:32:37;;;;;;;44.92;22.70;;;;;;;7.69;93.19;96155.97;5045444;28;20037;-73
2022/04/26 14:35:05;;;;;;;53.92;23.35;;;;;;;7.78;93.52;96162.28;5044607;28;20052;-73
2022/04/26 14:37:33;;;;;;;49.08;18.05;;;;;;;7.71;91.61;96174.63;5045391;28;20059;-72
2022/04/26 14:40:01;;;;;;;78.40;41.92;;;;;;;7.60;89.73;96179.47;5044469;28;20080;-73
2022/04/26 14:42:28;;;;;;;70.00;38.10;;;;;;;7.59;88.86;96184.09;5044677;28;20056;-73
2022/04/26 14:44:54;;;;;;;60.83;19.23;;;;;;;7.53;89.00;96179.09;5044167;28;20426;-73
2022/04/26 14:47:21;;;;;;;47.00;14.65;;;;;;;7.77;89.89;96184.25;5044914;28;20127;-73
2022/04/26 14:49:49;;;;;;;54.90;35.05;;;;;;;7.91;88.78;96185.03;5044437;28;20069;-72
2022/04/26 14:52:21;;;;;;;76.95;47.30;;;;;;;7.89;88.65;96187.25;5044137;28;20083;-72
2022/04/26 14:54:51;;;;;;;86.38;28.70;;;;;;;8.11;88.19;96186.50;5042859;28;20481;-72
2022/04/26 14:57:21;;;;;;;5.00;3.20;;;;;;;8.00;86.00;96195.97;5043194;28;20052;-73
2022/04/26 14:59:48;;;;;;;4.88;3.10;;;;;;;8.14;86.83;96198.63;5044446;28;20053;-73
2022/04/26 15:02:17;;;;;;;4.90;3.33;;;;;;;8.03;85.84;96209.72;5043503;28;20049;-73
2022/04/26 15:04:44;;;;;;;5.50;3.00;;;;;;;8.14;85.59;96204.06;5044899;28;20053;-73
2022/04/26 15:07:10;;;;;;;7.40;3.55;;;;;;;8.15;84.49;96200.25;5044827;28;20047;-73
2022/04/26 15:09:46;;;;;;;4.68;3.28;;;;;;;8.04;84.84;96210.53;5044825;28;20055;-73
2022/04/26 15:17:48;;;;;;;5.63;3.08;;;;;;;8.04;83.65;96222.19;5024962;28;20079;-72
2022/04/26 15:20:16;;;;;;;6.00;3.60;;;;;;;8.00;83.96;96213.03;5023230;28;20053;-72
2022/04/26 15:22:43;;;;;;;7.97;3.70;;;;;;;7.97;84.16;96216.34;5025312;28;20136;-72
2022/04/26 15:25:10;;;;;;;6.35;3.63;;;;;;;7.98;84.45;96217.94;5023787;28;20081;-73
2022/04/26 15:27:38;;;;;;;5.15;3.38;;;;;;;8.12;84.06;96228.78;5025173;28;20048;-72
2022/04/26 15:30:09;;;;;;;6.22;3.63;;;;;;;7.95;83.84;96218.56;5024035;28;20053;-72
2022/04/26 15:32:35;;;;;;;7.57;3.60;;;;;;;8.09;84.62;96224.78;5024831;28;20466;-74
2022/04/26 15:35:02;;;;;;;5.75;3.58;;;;;;;8.25;84.86;96227.16;5024639;28;20053;-75